Terminal Aerodrome Forecast
Issued by NWS

Home | Current Version | Previous Version | Text Only | Print | Product List | Glossary Off
Versions: 1 2 3 4 5 6 7 8 9 10 11 12 13 14 15 16 17 18 19 20 21

000
FTUS43 KMPX 270525
TAFRNH
TAF
KRNH 270525Z 2706/2806 31006KT 6SM BR VCSH SCT008 BKN110
      TEMPO 2706/2709 BKN007
     FM270900 25004KT 3SM BR FEW002 SCT015 BKN110
     FM271300 24008KT P6SM SCT060
     FM271500 27010G16KT P6SM SCT060
     FM280000 VRB02KT P6SM SKC=

USA.gov is the U.S. government's official web portal to all federal, state and local government web resources and services.